sensor_id;sensor_type;location;lat;lon;timestamp;temperature;humidity
39899;DHT22;25571;47.876;10.642;2022-12-18T00:00:28;-2.10;99.90
39899;DHT22;25571;47.876;10.642;2022-12-18T00:02:55;-2.10;99.90
39899;DHT22;25571;47.876;10.642;2022-12-18T00:05:21;-2.20;99.90
39899;DHT22;25571;47.876;10.642;2022-12-18T00:07:46;-2.30;99.90
39899;DHT22;25571;47.876;10.642;2022-12-18T00:10:12;-2.20;99.90
39899;DHT22;25571;47.876;10.642;2022-12-18T00:12:38;-2.40;99.90
39899;DHT22;25571;47.876;10.642;2022-12-18T00:15:03;-2.70;99.90
39899;DHT22;25571;47.876;10.642;2022-12-18T00:17:29;-2.60;99.90
39899;DHT22;25571;47.876;10.642;2022-12-18T00:19:55;-2.90;99.90
39899;DHT22;25571;47.876;10.642;2022-12-18T00:22:20;-3.00;99.90
39899;DHT22;25571;47.876;10.642;2022-12-18T00:24:46;-3.20;99.90
39899;DHT22;25571;47.876;10.642;2022-12-18T00:27:11;-3.20;99.90
39899;DHT22;25571;47.876;10.642;2022-12-18T00:29:37;-3.00;99.90
39899;DHT22;25571;47.876;10.642;2022-12-18T00:32:02;-2.80;99.90
39899;DHT22;25571;47.876;10.642;2022-12-18T00:34:28;-3.00;99.90
39899;DHT22;25571;47.876;10.642;2022-12-18T00:36:54;-2.80;99.90
39899;DHT22;25571;47.876;10.642;2022-12-18T00:39:19;-2.70;99.90
39899;DHT22;25571;47.876;10.642;2022-12-18T00:41:45;-2.70;99.90
39899;DHT22;25571;47.876;10.642;2022-12-18T00:44:29;-3.00;99.90
39899;DHT22;25571;47.876;10.642;2022-12-18T00:46:54;-3.20;99.90
39899;DHT22;25571;47.876;10.642;2022-12-18T00:49:20;-3.30;99.90
39899;DHT22;25571;47.876;10.642;2022-12-18T00:51:46;-3.20;99.90
39899;DHT22;25571;47.876;10.642;2022-12-18T00:54:12;-3.20;99.90
39899;DHT22;25571;47.876;10.642;2022-12-18T00:56:38;-3.20;99.90
39899;DHT22;25571;47.876;10.642;2022-12-18T00:59:05;-3.30;99.90
39899;DHT22;25571;47.876;10.642;2022-12-18T01:01:31;-3.10;99.90
39899;DHT22;25571;47.876;10.642;2022-12-18T01:03:58;-3.10;99.90
39899;DHT22;25571;47.876;10.642;2022-12-18T01:06:24;-3.10;99.90
39899;DHT22;25571;47.876;10.642;2022-12-18T01:08:50;-3.30;99.90
39899;DHT22;25571;47.876;10.642;2022-12-18T01:11:17;-3.20;99.90
39899;DHT22;25571;47.876;10.642;2022-12-18T01:13:44;-3.20;99.90
39899;DHT22;25571;47.876;10.642;2022-12-18T01:16:14;-3.10;99.90
39899;DHT22;25571;47.876;10.642;2022-12-18T01:18:40;-3.00;99.90
39899;DHT22;25571;47.876;10.642;2022-12-18T01:21:14;-2.80;99.90
39899;DHT22;25571;47.876;10.642;2022-12-18T01:23:40;-2.80;99.90
39899;DHT22;25571;47.876;10.642;2022-12-18T01:26:16;-2.90;99.90
39899;DHT22;25571;47.876;10.642;2022-12-18T01:28:42;-2.90;99.90
39899;DHT22;25571;47.876;10.642;2022-12-18T01:31:20;-3.20;99.90
39899;DHT22;25571;47.876;10.642;2022-12-18T01:33:49;-3.30;99.90
39899;DHT22;25571;47.876;10.642;2022-12-18T01:36:27;-3.20;99.90
39899;DHT22;25571;47.876;10.642;2022-12-18T01:38:53;-3.20;99.90
39899;DHT22;25571;47.876;10.642;2022-12-18T01:41:27;-3.50;99.90
39899;DHT22;25571;47.876;10.642;2022-12-18T01:47:21;-3.10;99.90
39899;DHT22;25571;47.876;10.642;2022-12-18T01:49:49;-3.00;99.90
39899;DHT22;25571;47.876;10.642;2022-12-18T01:52:15;-2.90;99.90
39899;DHT22;25571;47.876;10.642;2022-12-18T01:54:42;-3.00;99.90
39899;DHT22;25571;47.876;10.642;2022-12-18T01:57:08;-2.80;99.90
39899;DHT22;25571;47.876;10.642;2022-12-18T01:59:35;-2.70;99.90
39899;DHT22;25571;47.876;10.642;2022-12-18T02:02:02;-2.80;99.90
39899;DHT22;25571;47.876;10.642;2022-12-18T02:04:28;-2.80;99.90
39899;DHT22;25571;47.876;10.642;2022-12-18T02:07:24;-2.70;99.90
39899;DHT22;25571;47.876;10.642;2022-12-18T02:10:07;-2.70;99.90
39899;DHT22;25571;47.876;10.642;2022-12-18T02:12:57;-2.60;99.90
39899;DHT22;25571;47.876;10.642;2022-12-18T02:15:42;-2.60;99.90
39899;DHT22;25571;47.876;10.642;2022-12-18T02:18:27;-2.60;99.90
39899;DHT22;25571;47.876;10.642;2022-12-18T02:26:56;-2.60;99.90
39899;DHT22;25571;47.876;10.642;2022-12-18T02:29:38;-2.60;99.90
39899;DHT22;25571;47.876;10.642;2022-12-18T02:32:10;-2.60;99.90
39899;DHT22;25571;47.876;10.642;2022-12-18T02:34:39;-2.50;99.90
39899;DHT22;25571;47.876;10.642;2022-12-18T02:37:09;-2.50;99.90
39899;DHT22;25571;47.876;10.642;2022-12-18T02:39:39;-2.50;99.90
39899;DHT22;25571;47.876;10.642;2022-12-18T02:42:06;-2.60;99.90
39899;DHT22;25571;47.876;10.642;2022-12-18T02:44:42;-2.50;99.90
39899;DHT22;25571;47.876;10.642;2022-12-18T02:47:10;-2.60;99.90
39899;DHT22;25571;47.876;10.642;2022-12-18T02:55:17;-2.70;99.90
39899;DHT22;25571;47.876;10.642;2022-12-18T02:57:55;-2.60;99.90
39899;DHT22;25571;47.876;10.642;2022-12-18T03:00:36;-2.60;99.90
39899;DHT22;25571;47.876;10.642;2022-12-18T03:03:30;-2.60;99.90
39899;DHT22;25571;47.876;10.642;2022-12-18T03:06:08;-2.60;99.90
39899;DHT22;25571;47.876;10.642;2022-12-18T03:08:39;-2.70;99.90
39899;DHT22;25571;47.876;10.642;2022-12-18T03:11:10;-2.60;99.90
39899;DHT22;25571;47.876;10.642;2022-12-18T03:16:11;-2.60;99.90
39899;DHT22;25571;47.876;10.642;2022-12-18T03:18:48;-2.70;99.90
39899;DHT22;25571;47.876;10.642;2022-12-18T03:21:18;-2.60;99.90
39899;DHT22;25571;47.876;10.642;2022-12-18T03:23:48;-2.70;99.90
39899;DHT22;25571;47.876;10.642;2022-12-18T03:26:17;-2.50;99.90
39899;DHT22;25571;47.876;10.642;2022-12-18T03:28:54;-2.60;99.90
39899;DHT22;25571;47.876;10.642;2022-12-18T03:31:23;-2.70;99.90
39899;DHT22;25571;47.876;10.642;2022-12-18T03:33:55;-2.70;99.90
39899;DHT22;25571;47.876;10.642;2022-12-18T03:36:21;-2.80;99.90
39899;DHT22;25571;47.876;10.642;2022-12-18T03:38:47;-2.80;99.90
39899;DHT22;25571;47.876;10.642;2022-12-18T03:41:34;-2.80;99.90
39899;DHT22;25571;47.876;10.642;2022-12-18T03:44:35;-2.80;99.90
39899;DHT22;25571;47.876;10.642;2022-12-18T03:47:15;-2.80;99.90
39899;DHT22;25571;47.876;10.642;2022-12-18T03:50:10;-2.80;99.90
39899;DHT22;25571;47.876;10.642;2022-12-18T03:52:57;-2.70;99.90
39899;DHT22;25571;47.876;10.642;2022-12-18T03:55:26;-2.70;99.90
39899;DHT22;25571;47.876;10.642;2022-12-18T03:57:54;-2.70;99.90
39899;DHT22;25571;47.876;10.642;2022-12-18T04:00:20;-2.70;99.90
39899;DHT22;25571;47.876;10.642;2022-12-18T04:02:50;-2.90;99.90
39899;DHT22;25571;47.876;10.642;2022-12-18T04:05:18;-2.90;99.90
39899;DHT22;25571;47.876;10.642;2022-12-18T04:07:47;-2.80;99.90
39899;DHT22;25571;47.876;10.642;2022-12-18T04:10:14;-3.00;99.90
39899;DHT22;25571;47.876;10.642;2022-12-18T04:12:40;-3.00;99.90
39899;DHT22;25571;47.876;10.642;2022-12-18T04:15:07;-3.00;99.90
39899;DHT22;25571;47.876;10.642;2022-12-18T04:17:32;-3.10;99.90
39899;DHT22;25571;47.876;10.642;2022-12-18T04:19:58;-3.00;99.90
39899;DHT22;25571;47.876;10.642;2022-12-18T04:22:24;-2.90;99.90
39899;DHT22;25571;47.876;10.642;2022-12-18T04:24:49;-2.90;99.90
39899;DHT22;25571;47.876;10.642;2022-12-18T04:27:15;-2.90;99.90
39899;DHT22;25571;47.876;10.642;2022-12-18T04:29:40;-2.90;99.90
39899;DHT22;25571;47.876;10.642;2022-12-18T04:32:07;-3.00;99.90
39899;DHT22;25571;47.876;10.642;2022-12-18T04:34:32;-2.90;99.90
39899;DHT22;25571;47.876;10.642;2022-12-18T04:36:58;-2.80;99.90
39899;DHT22;25571;47.876;10.642;2022-12-18T04:39:24;-2.80;99.90
39899;DHT22;25571;47.876;10.642;2022-12-18T04:41:49;-2.90;99.90
39899;DHT22;25571;47.876;10.642;2022-12-18T04:44:15;-2.80;99.90
39899;DHT22;25571;47.876;10.642;2022-12-18T04:46:41;-2.80;99.90
39899;DHT22;25571;47.876;10.642;2022-12-18T04:49:06;-3.00;99.90
39899;DHT22;25571;47.876;10.642;2022-12-18T04:51:32;-3.30;99.90
39899;DHT22;25571;47.876;10.642;2022-12-18T04:53:58;-3.50;99.90
39899;DHT22;25571;47.876;10.642;2022-12-18T04:56:23;-3.50;99.90
39899;DHT22;25571;47.876;10.642;2022-12-18T04:58:49;-3.40;99.90
39899;DHT22;25571;47.876;10.642;2022-12-18T05:01:16;-3.30;99.90
39899;DHT22;25571;47.876;10.642;2022-12-18T05:03:42;-3.30;99.90
39899;DHT22;25571;47.876;10.642;2022-12-18T05:06:08;-3.30;99.90
39899;DHT22;25571;47.876;10.642;2022-12-18T05:08:34;-3.60;99.90
39899;DHT22;25571;47.876;10.642;2022-12-18T05:13:29;-3.50;99.90
39899;DHT22;25571;47.876;10.642;2022-12-18T05:15:55;-3.30;99.90
39899;DHT22;25571;47.876;10.642;2022-12-18T05:18:22;-3.20;99.90
39899;DHT22;25571;47.876;10.642;2022-12-18T05:20:48;-3.30;99.90
39899;DHT22;25571;47.876;10.642;2022-12-18T05:23:14;-3.20;99.90
39899;DHT22;25571;47.876;10.642;2022-12-18T05:25:40;-3.50;99.90
39899;DHT22;25571;47.876;10.642;2022-12-18T05:28:05;-3.40;99.90
39899;DHT22;25571;47.876;10.642;2022-12-18T05:30:31;-3.20;99.90
39899;DHT22;25571;47.876;10.642;2022-12-18T05:32:56;-3.40;99.90
39899;DHT22;25571;47.876;10.642;2022-12-18T05:35:22;-3.40;99.90
39899;DHT22;25571;47.876;10.642;2022-12-18T05:37:48;-3.30;99.90
39899;DHT22;25571;47.876;10.642;2022-12-18T05:40:13;-3.20;99.90
39899;DHT22;25571;47.876;10.642;2022-12-18T05:42:39;-3.40;99.90
39899;DHT22;25571;47.876;10.642;2022-12-18T05:45:05;-3.40;99.90
39899;DHT22;25571;47.876;10.642;2022-12-18T05:47:31;-3.20;99.90
39899;DHT22;25571;47.876;10.642;2022-12-18T05:49:57;-3.20;99.90
39899;DHT22;25571;47.876;10.642;2022-12-18T05:52:23;-3.40;99.90
39899;DHT22;25571;47.876;10.642;2022-12-18T05:54:49;-3.60;99.90
39899;DHT22;25571;47.876;10.642;2022-12-18T05:57:14;-3.60;99.90
39899;DHT22;25571;47.876;10.642;2022-12-18T05:59:40;-4.00;99.90
39899;DHT22;25571;47.876;10.642;2022-12-18T06:02:05;-4.40;99.90
39899;DHT22;25571;47.876;10.642;2022-12-18T06:04:31;-4.20;99.90
39899;DHT22;25571;47.876;10.642;2022-12-18T06:06:57;-4.00;99.90
39899;DHT22;25571;47.876;10.642;2022-12-18T06:09:23;-4.00;99.90
39899;DHT22;25571;47.876;10.642;2022-12-18T06:11:49;-4.00;99.90
39899;DHT22;25571;47.876;10.642;2022-12-18T06:14:16;-4.10;99.90
39899;DHT22;25571;47.876;10.642;2022-12-18T06:16:42;-3.90;99.90
39899;DHT22;25571;47.876;10.642;2022-12-18T06:19:14;-4.00;99.90
39899;DHT22;25571;47.876;10.642;2022-12-18T06:21:40;-4.00;99.90
39899;DHT22;25571;47.876;10.642;2022-12-18T06:24:06;-3.90;99.90
39899;DHT22;25571;47.876;10.642;2022-12-18T06:26:32;-4.10;99.90
39899;DHT22;25571;47.876;10.642;2022-12-18T06:28:58;-4.10;99.90
39899;DHT22;25571;47.876;10.642;2022-12-18T06:31:24;-4.10;99.90
39899;DHT22;25571;47.876;10.642;2022-12-18T06:33:49;-4.30;99.90
39899;DHT22;25571;47.876;10.642;2022-12-18T06:36:15;-4.20;99.90
39899;DHT22;25571;47.876;10.642;2022-12-18T06:38:43;-4.30;99.90
39899;DHT22;25571;47.876;10.642;2022-12-18T06:41:18;-4.30;99.90
39899;DHT22;25571;47.876;10.642;2022-12-18T06:43:45;-4.30;99.90
39899;DHT22;25571;47.876;10.642;2022-12-18T06:46:10;-4.30;99.90
39899;DHT22;25571;47.876;10.642;2022-12-18T06:48:37;-4.20;99.90
39899;DHT22;25571;47.876;10.642;2022-12-18T06:51:03;-4.10;99.90
39899;DHT22;25571;47.876;10.642;2022-12-18T06:53:29;-4.20;99.90
39899;DHT22;25571;47.876;10.642;2022-12-18T06:56:06;-4.20;99.90
39899;DHT22;25571;47.876;10.642;2022-12-18T06:58:32;-4.20;99.90
39899;DHT22;25571;47.876;10.642;2022-12-18T07:01:02;-4.20;99.90
39899;DHT22;25571;47.876;10.642;2022-12-18T07:03:28;-4.40;99.90
39899;DHT22;25571;47.876;10.642;2022-12-18T07:05:54;-4.40;99.90
39899;DHT22;25571;47.876;10.642;2022-12-18T07:08:19;-4.40;99.90
39899;DHT22;25571;47.876;10.642;2022-12-18T07:10:45;-4.50;99.90
39899;DHT22;25571;47.876;10.642;2022-12-18T07:13:11;-4.60;99.90
39899;DHT22;25571;47.876;10.642;2022-12-18T07:15:37;-5.00;99.90
39899;DHT22;25571;47.876;10.642;2022-12-18T07:18:02;-5.10;99.90
39899;DHT22;25571;47.876;10.642;2022-12-18T07:20:28;-5.10;99.90
39899;DHT22;25571;47.876;10.642;2022-12-18T07:22:54;-4.90;99.90
39899;DHT22;25571;47.876;10.642;2022-12-18T07:25:20;-5.00;99.90
39899;DHT22;25571;47.876;10.642;2022-12-18T07:27:45;-5.10;99.90
39899;DHT22;25571;47.876;10.642;2022-12-18T07:30:11;-5.20;99.90
39899;DHT22;25571;47.876;10.642;2022-12-18T07:32:36;-5.20;99.90
39899;DHT22;25571;47.876;10.642;2022-12-18T07:35:02;-5.20;99.90
39899;DHT22;25571;47.876;10.642;2022-12-18T07:37:28;-5.10;99.90
39899;DHT22;25571;47.876;10.642;2022-12-18T07:39:53;-4.90;99.90
39899;DHT22;25571;47.876;10.642;2022-12-18T07:42:19;-4.80;99.90
39899;DHT22;25571;47.876;10.642;2022-12-18T07:45:00;-5.00;99.90
39899;DHT22;25571;47.876;10.642;2022-12-18T07:47:29;-5.10;99.90
39899;DHT22;25571;47.876;10.642;2022-12-18T07:49:56;-5.30;99.90
39899;DHT22;25571;47.876;10.642;2022-12-18T07:52:22;-5.50;99.90
39899;DHT22;25571;47.876;10.642;2022-12-18T07:54:47;-5.40;99.90
39899;DHT22;25571;47.876;10.642;2022-12-18T07:57:16;-5.40;99.90
39899;DHT22;25571;47.876;10.642;2022-12-18T07:59:42;-5.30;99.90
39899;DHT22;25571;47.876;10.642;2022-12-18T08:02:07;-5.20;99.90
39899;DHT22;25571;47.876;10.642;2022-12-18T08:04:34;-5.10;99.90
39899;DHT22;25571;47.876;10.642;2022-12-18T08:07:00;-5.10;99.90
39899;DHT22;25571;47.876;10.642;2022-12-18T08:09:25;-5.30;99.90
39899;DHT22;25571;47.876;10.642;2022-12-18T08:11:51;-5.20;99.90
39899;DHT22;25571;47.876;10.642;2022-12-18T08:14:16;-5.20;99.90
39899;DHT22;25571;47.876;10.642;2022-12-18T08:16:42;-5.00;99.90
39899;DHT22;25571;47.876;10.642;2022-12-18T08:19:08;-4.90;99.90
39899;DHT22;25571;47.876;10.642;2022-12-18T08:21:33;-5.00;99.90
39899;DHT22;25571;47.876;10.642;2022-12-18T08:24:00;-4.90;99.90
39899;DHT22;25571;47.876;10.642;2022-12-18T08:26:28;-4.80;99.90
39899;DHT22;25571;47.876;10.642;2022-12-18T08:28:55;-4.80;99.90
39899;DHT22;25571;47.876;10.642;2022-12-18T08:31:21;-5.10;99.90
39899;DHT22;25571;47.876;10.642;2022-12-18T08:33:51;-5.20;99.90
39899;DHT22;25571;47.876;10.642;2022-12-18T08:36:18;-5.10;99.90
39899;DHT22;25571;47.876;10.642;2022-12-18T08:38:44;-5.40;99.90
39899;DHT22;25571;47.876;10.642;2022-12-18T08:41:13;-5.50;99.90
39899;DHT22;25571;47.876;10.642;2022-12-18T08:43:40;-5.50;99.90
39899;DHT22;25571;47.876;10.642;2022-12-18T08:46:26;-5.80;99.90
39899;DHT22;25571;47.876;10.642;2022-12-18T08:48:53;-5.70;99.90
39899;DHT22;25571;47.876;10.642;2022-12-18T08:51:19;-5.50;99.90
39899;DHT22;25571;47.876;10.642;2022-12-18T08:53:45;-5.40;99.90
39899;DHT22;25571;47.876;10.642;2022-12-18T08:56:11;-5.70;99.90
39899;DHT22;25571;47.876;10.642;2022-12-18T08:58:37;-5.50;99.90
39899;DHT22;25571;47.876;10.642;2022-12-18T09:01:04;-5.30;99.90
39899;DHT22;25571;47.876;10.642;2022-12-18T09:03:30;-5.20;99.90
39899;DHT22;25571;47.876;10.642;2022-12-18T09:05:56;-5.20;99.90
39899;DHT22;25571;47.876;10.642;2022-12-18T09:08:21;-5.10;99.90
39899;DHT22;25571;47.876;10.642;2022-12-18T09:10:48;-5.00;99.90
39899;DHT22;25571;47.876;10.642;2022-12-18T09:13:15;-4.90;99.90
39899;DHT22;25571;47.876;10.642;2022-12-18T09:15:42;-4.70;99.90
39899;DHT22;25571;47.876;10.642;2022-12-18T09:18:09;-4.40;99.90
39899;DHT22;25571;47.876;10.642;2022-12-18T09:20:35;-4.30;99.90
39899;DHT22;25571;47.876;10.642;2022-12-18T09:23:01;-4.10;99.90
39899;DHT22;25571;47.876;10.642;2022-12-18T09:25:29;-3.90;99.90
39899;DHT22;25571;47.876;10.642;2022-12-18T09:27:58;-3.70;99.90
39899;DHT22;25571;47.876;10.642;2022-12-18T09:30:24;-3.60;99.90
39899;DHT22;25571;47.876;10.642;2022-12-18T09:32:50;-3.60;99.90
39899;DHT22;25571;47.876;10.642;2022-12-18T09:35:15;-3.40;99.90
39899;DHT22;25571;47.876;10.642;2022-12-18T09:37:41;-3.40;99.90
39899;DHT22;25571;47.876;10.642;2022-12-18T09:40:16;-3.60;99.90
39899;DHT22;25571;47.876;10.642;2022-12-18T09:42:48;-3.50;99.90
39899;DHT22;25571;47.876;10.642;2022-12-18T09:45:17;-3.30;99.90
39899;DHT22;25571;47.876;10.642;2022-12-18T09:47:43;-3.10;99.90
39899;DHT22;25571;47.876;10.642;2022-12-18T09:50:29;-2.90;99.90
39899;DHT22;25571;47.876;10.642;2022-12-18T09:52:59;-2.80;99.90
39899;DHT22;25571;47.876;10.642;2022-12-18T09:58:10;-3.10;99.90
39899;DHT22;25571;47.876;10.642;2022-12-18T10:00:38;-3.00;99.90
39899;DHT22;25571;47.876;10.642;2022-12-18T10:03:12;-2.90;99.90
39899;DHT22;25571;47.876;10.642;2022-12-18T10:14:13;-2.60;99.90
39899;DHT22;25571;47.876;10.642;2022-12-18T10:27:32;-3.50;99.90
39899;DHT22;25571;47.876;10.642;2022-12-18T10:29:58;-3.30;99.90
39899;DHT22;25571;47.876;10.642;2022-12-18T10:32:27;-3.30;99.90
39899;DHT22;25571;47.876;10.642;2022-12-18T10:34:55;-3.30;99.90
39899;DHT22;25571;47.876;10.642;2022-12-18T10:37:24;-3.50;99.90
39899;DHT22;25571;47.876;10.642;2022-12-18T10:42:34;-3.30;99.90
39899;DHT22;25571;47.876;10.642;2022-12-18T10:45:11;-3.10;99.90
39899;DHT22;25571;47.876;10.642;2022-12-18T10:47:42;-2.90;99.90
39899;DHT22;25571;47.876;10.642;2022-12-18T10:50:39;-2.80;99.90
39899;DHT22;25571;47.876;10.642;2022-12-18T10:53:05;-2.70;99.90
39899;DHT22;25571;47.876;10.642;2022-12-18T10:55:44;-2.50;99.90
39899;DHT22;25571;47.876;10.642;2022-12-18T10:58:27;-2.40;99.90
39899;DHT22;25571;47.876;10.642;2022-12-18T11:01:13;-2.60;99.90
39899;DHT22;25571;47.876;10.642;2022-12-18T11:06:20;-2.40;99.90
39899;DHT22;25571;47.876;10.642;2022-12-18T11:09:21;-2.30;99.90
39899;DHT22;25571;47.876;10.642;2022-12-18T11:11:55;-2.20;99.90
39899;DHT22;25571;47.876;10.642;2022-12-18T11:16:52;-2.20;99.90
39899;DHT22;25571;47.876;10.642;2022-12-18T11:19:34;-2.10;99.90
39899;DHT22;25571;47.876;10.642;2022-12-18T11:22:01;-2.10;99.90
39899;DHT22;25571;47.876;10.642;2022-12-18T11:24:32;-2.00;99.90
39899;DHT22;25571;47.876;10.642;2022-12-18T11:27:02;-2.00;99.90
39899;DHT22;25571;47.876;10.642;2022-12-18T11:34:47;-2.20;99.90
39899;DHT22;25571;47.876;10.642;2022-12-18T11:37:15;-2.00;99.90
39899;DHT22;25571;47.876;10.642;2022-12-18T11:39:53;-2.10;99.90
39899;DHT22;25571;47.876;10.642;2022-12-18T11:42:27;-2.00;99.90
39899;DHT22;25571;47.876;10.642;2022-12-18T11:53:13;-1.90;99.90
39899;DHT22;25571;47.876;10.642;2022-12-18T11:58:43;-1.90;99.90
39899;DHT22;25571;47.876;10.642;2022-12-18T12:01:22;-1.90;99.90
39899;DHT22;25571;47.876;10.642;2022-12-18T12:04:19;-1.30;99.90
